createdAt,value
2019-03-31T00:02:20.957Z,91.64
2019-03-31T00:04:52.094Z,91.88
2019-03-31T00:07:22.716Z,92.43
2019-03-31T00:09:53.327Z,92.91
2019-03-31T00:12:24.035Z,93.59
2019-03-31T00:14:54.587Z,94.27
2019-03-31T00:17:25.754Z,94.30
2019-03-31T00:19:56.338Z,94.76
2019-03-31T00:22:26.947Z,94.92
2019-03-31T00:24:57.484Z,95.20
2019-03-31T00:27:28.071Z,95.44
2019-03-31T00:29:58.683Z,95.54
2019-03-31T00:32:29.357Z,95.56
2019-03-31T00:34:59.951Z,95.55
2019-03-31T00:37:30.547Z,95.87
2019-03-31T00:40:01.107Z,97.02
2019-03-31T00:42:31.731Z,97.04
2019-03-31T00:45:02.315Z,97.62
2019-03-31T00:47:32.896Z,97.94
2019-03-31T00:50:03.479Z,98.23
2019-03-31T00:52:34.104Z,98.28
2019-03-31T00:55:04.690Z,98.09
2019-03-31T00:57:35.341Z,98.09
2019-03-31T01:00:07.485Z,98.30
2019-03-31T01:02:38.119Z,97.82
2019-03-31T01:05:08.823Z,97.36
2019-03-31T01:07:39.439Z,97.33
2019-03-31T01:10:10.028Z,97.26
2019-03-31T01:12:40.671Z,96.58
2019-03-31T01:15:16.175Z,96.43
2019-03-31T01:17:47.286Z,96.16
2019-03-31T01:20:17.966Z,96.66
2019-03-31T01:22:48.557Z,96.71
2019-03-31T01:25:19.210Z,97.02
2019-03-31T01:27:49.756Z,97.42
2019-03-31T01:30:22.119Z,97.65
2019-03-31T01:32:53.307Z,98.09
2019-03-31T01:35:23.907Z,98.42
2019-03-31T01:37:54.538Z,98.65
2019-03-31T01:40:25.141Z,98.70
2019-03-31T01:42:55.807Z,98.50
2019-03-31T01:45:26.817Z,98.74
2019-03-31T01:47:57.761Z,98.56
2019-03-31T01:50:28.485Z,98.36
2019-03-31T01:52:59.042Z,98.32
2019-03-31T01:55:29.632Z,98.27
2019-03-31T01:58:00.206Z,98.72
2019-03-31T02:00:45.388Z,98.65
2019-03-31T02:03:16.010Z,98.80
2019-03-31T02:05:46.647Z,99.36
2019-03-31T02:08:17.166Z,99.73
2019-03-31T02:10:47.788Z,100.00
2019-03-31T02:13:18.335Z,99.95
2019-03-31T02:15:48.942Z,99.87
2019-03-31T02:18:19.544Z,99.74
2019-03-31T02:20:50.152Z,99.94
2019-03-31T02:23:20.742Z,100.00
2019-03-31T02:25:51.386Z,100.00
2019-03-31T02:28:21.998Z,100.00
2019-03-31T02:30:52.678Z,100.00
2019-03-31T02:33:23.294Z,100.00
2019-03-31T02:35:53.831Z,100.00
2019-03-31T02:38:24.417Z,100.00
2019-03-31T02:40:54.986Z,100.00
2019-03-31T02:43:25.622Z,100.00
2019-03-31T02:45:56.492Z,100.00
2019-03-31T02:48:27.192Z,100.00
2019-03-31T02:50:57.811Z,100.00
2019-03-31T02:53:28.437Z,100.00
2019-03-31T02:55:59.580Z,100.00
2019-03-31T02:58:31.745Z,100.00
2019-03-31T03:01:02.480Z,100.00
2019-03-31T03:03:34.692Z,100.00
2019-03-31T03:06:06.446Z,100.00
2019-03-31T03:08:37.824Z,100.00
2019-03-31T03:11:09.417Z,100.00
2019-03-31T03:13:41.326Z,100.00
2019-03-31T03:16:29.651Z,100.00
2019-03-31T03:19:00.244Z,100.00
2019-03-31T03:21:30.782Z,100.00
2019-03-31T03:24:02.266Z,100.00
2019-03-31T03:26:32.898Z,100.00
2019-03-31T03:29:03.502Z,100.00
2019-03-31T03:31:34.109Z,100.00
2019-03-31T03:34:04.858Z,100.00
2019-03-31T03:36:35.485Z,100.00
2019-03-31T03:39:07.786Z,100.00
2019-03-31T03:41:38.532Z,100.00
2019-03-31T03:44:09.124Z,100.00
2019-03-31T03:46:39.716Z,100.00
2019-03-31T03:49:10.467Z,100.00
2019-03-31T03:51:41.100Z,100.00
2019-03-31T03:54:11.672Z,100.00
2019-03-31T03:56:42.284Z,100.00
2019-03-31T03:59:12.856Z,100.00
2019-03-31T04:01:43.439Z,100.00
2019-03-31T04:04:14.036Z,100.00
2019-03-31T04:06:44.696Z,100.00
2019-03-31T04:09:15.258Z,100.00
2019-03-31T04:11:45.884Z,100.00
2019-03-31T04:14:16.492Z,100.00
2019-03-31T04:16:47.061Z,100.00
2019-03-31T04:19:17.666Z,100.00
2019-03-31T04:21:48.375Z,100.00
2019-03-31T04:24:19.005Z,100.00
2019-03-31T04:26:49.591Z,100.00
2019-03-31T04:29:20.219Z,100.00
2019-03-31T04:31:50.838Z,100.00
2019-03-31T04:34:21.471Z,100.00
2019-03-31T04:36:52.109Z,100.00
2019-03-31T04:39:22.713Z,100.00
2019-03-31T04:41:53.386Z,100.00
2019-03-31T04:44:23.956Z,100.00
2019-03-31T04:46:54.544Z,100.00
2019-03-31T04:49:25.142Z,100.00
2019-03-31T04:51:55.762Z,100.00
2019-03-31T04:54:26.445Z,100.00
2019-03-31T04:56:57.023Z,100.00
2019-03-31T04:59:27.603Z,100.00
2019-03-31T05:01:58.190Z,100.00
2019-03-31T05:04:28.967Z,100.00
2019-03-31T05:06:59.654Z,100.00
2019-03-31T05:09:30.370Z,100.00
2019-03-31T05:12:00.920Z,100.00
2019-03-31T05:14:31.580Z,100.00
2019-03-31T05:17:02.176Z,100.00
2019-03-31T05:19:33.006Z,100.00
2019-03-31T05:22:03.627Z,100.00
2019-03-31T05:24:34.228Z,100.00
2019-03-31T05:27:04.845Z,100.00
2019-03-31T05:29:35.464Z,100.00
2019-03-31T05:32:06.114Z,100.00
2019-03-31T05:34:36.699Z,100.00
2019-03-31T05:37:07.931Z,100.00
2019-03-31T05:39:38.538Z,100.00
2019-03-31T05:42:09.238Z,100.00
2019-03-31T05:44:39.826Z,100.00
2019-03-31T05:47:10.414Z,100.00
2019-03-31T05:49:40.981Z,100.00
2019-03-31T05:52:11.669Z,100.00
2019-03-31T05:54:42.245Z,100.00
2019-03-31T05:57:17.646Z,100.00
2019-03-31T05:59:48.224Z,100.00
2019-03-31T06:02:18.819Z,100.00
2019-03-31T06:04:49.386Z,100.00
2019-03-31T06:07:20.061Z,100.00
2019-03-31T06:09:50.671Z,100.00
2019-03-31T06:12:21.267Z,100.00
2019-03-31T06:14:51.847Z,100.00
2019-03-31T06:17:22.483Z,100.00
2019-03-31T06:19:53.087Z,100.00
2019-03-31T06:22:23.789Z,100.00
2019-03-31T06:24:54.413Z,100.00
2019-03-31T06:27:25.089Z,100.00
2019-03-31T06:29:55.711Z,100.00
2019-03-31T06:32:26.343Z,100.00
2019-03-31T06:34:57.013Z,100.00
2019-03-31T06:37:27.689Z,100.00
2019-03-31T06:39:58.297Z,100.00
2019-03-31T06:42:29.039Z,100.00
2019-03-31T06:44:59.676Z,100.00
2019-03-31T06:47:33.229Z,100.00
2019-03-31T06:50:04.056Z,100.00
2019-03-31T06:52:34.666Z,100.00
2019-03-31T06:55:06.188Z,100.00
2019-03-31T06:57:36.847Z,100.00
2019-03-31T07:00:08.379Z,100.00
2019-03-31T07:02:38.982Z,100.00
2019-03-31T07:05:09.701Z,100.00
2019-03-31T07:07:40.284Z,100.00
2019-03-31T07:10:11.884Z,100.00
2019-03-31T07:12:48.148Z,100.00
2019-03-31T07:15:20.530Z,100.00
2019-03-31T07:17:51.767Z,100.00
2019-03-31T07:20:22.783Z,100.00
2019-03-31T07:22:54.035Z,100.00
2019-03-31T07:25:24.814Z,100.00
2019-03-31T07:27:55.430Z,100.00
2019-03-31T07:30:26.230Z,100.00
2019-03-31T07:32:57.032Z,100.00
2019-03-31T07:35:27.652Z,100.00
2019-03-31T07:37:58.265Z,100.00
2019-03-31T07:40:29.173Z,99.54
2019-03-31T07:43:00.205Z,99.01
2019-03-31T07:45:30.840Z,98.01
2019-03-31T07:48:01.621Z,96.45
2019-03-31T07:50:32.274Z,95.94
2019-03-31T07:53:02.876Z,95.47
2019-03-31T07:55:33.489Z,95.35
2019-03-31T07:58:04.163Z,95.14
2019-03-31T08:00:34.734Z,94.63
2019-03-31T08:03:06.457Z,93.23
2019-03-31T08:05:37.781Z,92.44
2019-03-31T08:08:08.911Z,91.32
2019-03-31T08:10:39.545Z,90.99
2019-03-31T08:13:10.371Z,90.21
2019-03-31T08:15:40.999Z,90.04
2019-03-31T08:18:11.608Z,89.71
2019-03-31T08:20:42.452Z,88.55
2019-03-31T08:23:13.116Z,86.49
2019-03-31T08:25:43.782Z,84.96
2019-03-31T08:28:14.674Z,84.69
2019-03-31T08:30:46.173Z,83.80
2019-03-31T08:33:16.831Z,83.95
2019-03-31T08:35:48.017Z,83.14
2019-03-31T08:38:19.357Z,82.34
2019-03-31T08:40:50.294Z,80.85
2019-03-31T08:43:20.962Z,81.70
2019-03-31T08:45:51.537Z,81.91
2019-03-31T08:48:22.161Z,80.83
2019-03-31T08:50:52.890Z,79.01
2019-03-31T08:53:23.588Z,79.49
2019-03-31T08:55:54.256Z,77.44
2019-03-31T08:58:24.959Z,76.05
2019-03-31T09:01:01.708Z,72.18
2019-03-31T09:03:32.447Z,71.67
2019-03-31T09:06:03.189Z,70.74
2019-03-31T09:08:33.995Z,70.69
2019-03-31T09:11:04.731Z,70.47
2019-03-31T09:13:35.589Z,69.82
2019-03-31T09:16:06.179Z,69.68
2019-03-31T09:18:36.823Z,68.55
2019-03-31T09:21:07.567Z,68.32
2019-03-31T09:23:38.168Z,67.78
2019-03-31T09:26:08.872Z,66.10
2019-03-31T09:28:39.630Z,64.45
2019-03-31T09:31:10.414Z,63.10
2019-03-31T09:33:41.003Z,63.61
2019-03-31T09:36:16.502Z,63.63
2019-03-31T09:38:43.952Z,62.94
2019-03-31T09:41:14.667Z,62.99
2019-03-31T09:43:45.291Z,62.83
2019-03-31T09:46:15.920Z,63.41
2019-03-31T09:48:46.730Z,61.45
2019-03-31T09:51:17.381Z,61.22
2019-03-31T09:53:47.996Z,62.37
2019-03-31T09:56:18.632Z,61.13
2019-03-31T09:58:49.291Z,59.90
2019-03-31T10:01:20.815Z,60.05
2019-03-31T10:03:51.441Z,60.55
2019-03-31T10:06:30.023Z,58.20
2019-03-31T10:08:54.473Z,58.35
2019-03-31T10:11:25.111Z,59.13
2019-03-31T10:13:55.732Z,58.29
2019-03-31T10:16:26.502Z,58.85
2019-03-31T10:18:57.129Z,55.13
2019-03-31T10:21:28.027Z,55.63
2019-03-31T10:23:58.678Z,54.53
2019-03-31T10:26:32.206Z,53.99
2019-03-31T10:29:01.622Z,52.76
2019-03-31T10:31:32.319Z,53.29
2019-03-31T10:34:03.005Z,53.38
2019-03-31T10:36:43.884Z,51.20
2019-03-31T10:39:07.942Z,52.16
2019-03-31T10:41:39.033Z,51.34
2019-03-31T10:44:09.644Z,50.02
2019-03-31T10:46:40.312Z,50.56
2019-03-31T10:49:10.885Z,49.41
2019-03-31T10:51:41.559Z,49.27
2019-03-31T10:54:12.161Z,48.80
2019-03-31T10:56:42.846Z,49.88
2019-03-31T10:59:13.528Z,45.99
2019-03-31T11:01:44.129Z,45.07
2019-03-31T11:04:14.757Z,46.11
2019-03-31T11:06:58.412Z,45.57
2019-03-31T11:09:17.778Z,45.65
2019-03-31T11:11:48.400Z,46.85
2019-03-31T11:14:19.029Z,43.99
2019-03-31T11:16:49.808Z,46.93
2019-03-31T11:19:20.500Z,44.46
2019-03-31T11:22:10.064Z,43.44
2019-03-31T11:24:41.038Z,45.50
2019-03-31T11:27:11.668Z,42.31
2019-03-31T11:29:42.326Z,43.24
2019-03-31T11:32:13.154Z,44.93
2019-03-31T11:34:43.791Z,44.03
2019-03-31T11:37:14.519Z,42.86
2019-03-31T11:39:45.136Z,41.84
2019-03-31T11:42:15.755Z,41.91
2019-03-31T11:44:46.328Z,41.22
2019-03-31T11:47:16.927Z,38.46
2019-03-31T11:49:47.689Z,39.64
2019-03-31T11:52:18.248Z,40.21
2019-03-31T11:54:48.849Z,40.32
2019-03-31T11:57:19.495Z,38.91
2019-03-31T11:59:50.117Z,41.97
2019-03-31T12:02:27.373Z,39.43
2019-03-31T12:04:53.671Z,39.20
2019-03-31T12:07:28.278Z,39.20
2019-03-31T12:09:57.145Z,39.10
2019-03-31T12:12:27.801Z,41.86
2019-03-31T12:15:00.737Z,40.00
2019-03-31T12:17:30.748Z,41.47
2019-03-31T12:20:01.386Z,40.40
2019-03-31T12:22:32.091Z,40.45
2019-03-31T12:25:02.736Z,40.40
2019-03-31T12:27:33.353Z,39.75
2019-03-31T12:30:04.084Z,40.39
2019-03-31T12:32:38.138Z,39.41
2019-03-31T12:35:07.193Z,37.87
2019-03-31T12:37:42.743Z,38.74
2019-03-31T12:40:15.485Z,39.23
2019-03-31T12:42:46.301Z,38.95
2019-03-31T12:45:16.947Z,38.49
2019-03-31T12:47:47.659Z,38.77
2019-03-31T12:50:18.397Z,38.90
2019-03-31T12:52:51.142Z,36.35
2019-03-31T12:55:21.334Z,37.02
2019-03-31T12:57:52.310Z,36.85
2019-03-31T13:00:22.977Z,35.32
2019-03-31T13:02:53.679Z,37.83
2019-03-31T13:05:24.270Z,37.86
2019-03-31T13:07:56.620Z,38.81
2019-03-31T13:10:27.261Z,38.25
2019-03-31T13:12:57.879Z,39.16
2019-03-31T13:15:31.154Z,40.19
2019-03-31T13:18:02.473Z,40.08
2019-03-31T13:20:34.285Z,39.82
2019-03-31T13:23:04.881Z,39.02
2019-03-31T13:25:35.486Z,37.46
2019-03-31T13:28:06.238Z,39.65
2019-03-31T13:30:36.912Z,40.45
2019-03-31T13:33:07.519Z,39.33
2019-03-31T13:35:38.182Z,38.97
2019-03-31T13:38:11.440Z,39.04
2019-03-31T13:40:41.030Z,38.69
2019-03-31T13:43:11.619Z,39.31
2019-03-31T13:45:42.289Z,38.72
2019-03-31T13:48:12.937Z,38.97
2019-03-31T13:50:43.574Z,39.40
2019-03-31T13:53:16.292Z,37.92
2019-03-31T13:55:46.504Z,38.58
2019-03-31T13:58:18.965Z,38.39
2019-03-31T14:00:49.406Z,39.14
2019-03-31T14:03:20.104Z,37.92
2019-03-31T14:05:50.672Z,37.67
2019-03-31T14:08:25.903Z,39.15
2019-03-31T14:10:53.662Z,38.22
2019-03-31T14:13:24.293Z,40.06
2019-03-31T14:15:54.902Z,37.30
2019-03-31T14:18:25.585Z,36.18
2019-03-31T14:20:56.256Z,38.56
2019-03-31T14:23:26.861Z,38.89
2019-03-31T14:25:57.528Z,38.90
2019-03-31T14:28:28.212Z,38.11
2019-03-31T14:30:58.793Z,38.20
2019-03-31T14:33:29.478Z,38.04
2019-03-31T14:36:00.083Z,37.43
2019-03-31T14:38:40.107Z,36.22
2019-03-31T14:41:03.088Z,35.52
2019-03-31T14:43:33.715Z,35.94
2019-03-31T14:46:04.607Z,34.43
2019-03-31T14:48:35.189Z,32.50
2019-03-31T14:51:05.865Z,32.34
2019-03-31T14:53:36.486Z,32.22
2019-03-31T14:56:07.089Z,31.61
2019-03-31T14:58:37.869Z,32.28
2019-03-31T15:01:08.462Z,33.87
2019-03-31T15:03:39.052Z,33.60
2019-03-31T15:06:09.729Z,32.40
2019-03-31T15:08:53.528Z,31.57
2019-03-31T15:11:12.718Z,31.82
2019-03-31T15:13:43.303Z,31.63
2019-03-31T15:16:13.935Z,32.78
2019-03-31T15:18:44.502Z,32.58
2019-03-31T15:21:15.119Z,31.39
2019-03-31T15:23:45.745Z,31.70
2019-03-31T15:26:16.438Z,31.35
2019-03-31T15:28:47.067Z,31.63
2019-03-31T15:31:17.698Z,32.26
2019-03-31T15:33:48.266Z,31.81
2019-03-31T15:36:18.898Z,30.93
2019-03-31T15:38:49.502Z,30.93
2019-03-31T15:41:21.377Z,30.31
2019-03-31T15:43:52.277Z,31.92
2019-03-31T15:46:24.628Z,33.05
2019-03-31T15:48:55.432Z,33.09
2019-03-31T15:51:26.112Z,33.17
2019-03-31T15:53:56.738Z,32.37
2019-03-31T15:56:27.302Z,33.02
2019-03-31T15:58:57.945Z,35.06
2019-03-31T16:01:28.603Z,34.24
2019-03-31T16:03:59.205Z,34.21
2019-03-31T16:06:30.248Z,34.02
2019-03-31T16:09:00.355Z,34.14
2019-03-31T16:11:30.685Z,33.57
2019-03-31T16:14:00.750Z,34.06
2019-03-31T16:16:31.039Z,33.78
2019-03-31T16:19:01.404Z,35.09
2019-03-31T16:21:31.549Z,36.53
2019-03-31T16:24:01.692Z,37.17
2019-03-31T16:26:32.181Z,36.56
2019-03-31T16:29:02.362Z,36.96
2019-03-31T16:31:32.484Z,36.75
2019-03-31T16:34:02.634Z,37.18
2019-03-31T16:36:32.866Z,36.31
2019-03-31T16:39:05.505Z,36.50
2019-03-31T16:41:36.197Z,36.39
2019-03-31T16:44:06.282Z,37.39
2019-03-31T16:46:39.696Z,37.37
2019-03-31T16:49:08.183Z,37.35
2019-03-31T16:51:38.194Z,37.89
2019-03-31T16:54:08.341Z,37.17
2019-03-31T16:56:38.699Z,39.75
2019-03-31T16:59:08.925Z,41.37
2019-03-31T17:01:39.182Z,40.38
2019-03-31T17:04:12.974Z,40.05
2019-03-31T17:06:43.809Z,40.99
2019-03-31T17:09:13.835Z,41.83
2019-03-31T17:11:43.959Z,40.77
2019-03-31T17:14:14.360Z,41.10
2019-03-31T17:16:44.468Z,41.32
2019-03-31T17:19:14.737Z,40.93
2019-03-31T17:21:44.867Z,41.12
2019-03-31T17:24:14.972Z,41.99
2019-03-31T17:26:45.053Z,41.17
2019-03-31T17:29:15.179Z,41.09
2019-03-31T17:31:45.319Z,41.55
2019-03-31T17:34:15.407Z,41.99
2019-03-31T17:36:45.459Z,42.20
2019-03-31T17:39:15.631Z,42.62
2019-03-31T17:41:45.695Z,42.46
2019-03-31T17:44:15.808Z,42.78
2019-03-31T17:46:45.943Z,43.07
2019-03-31T17:49:16.068Z,43.37
2019-03-31T17:51:46.169Z,43.99
2019-03-31T17:54:16.289Z,43.74
2019-03-31T17:56:46.487Z,43.89
2019-03-31T17:59:16.599Z,43.89
2019-03-31T18:01:46.719Z,44.20
2019-03-31T18:04:16.887Z,44.44
2019-03-31T18:06:46.961Z,45.01
2019-03-31T18:09:17.054Z,45.63
2019-03-31T18:11:47.183Z,45.54
2019-03-31T18:14:17.312Z,45.63
2019-03-31T18:16:47.474Z,45.73
2019-03-31T18:19:17.636Z,45.83
2019-03-31T18:21:47.853Z,46.15
2019-03-31T18:24:18.190Z,46.76
2019-03-31T18:26:48.299Z,47.37
2019-03-31T18:29:18.711Z,47.93
2019-03-31T18:31:49.008Z,48.39
2019-03-31T18:34:19.378Z,49.29
2019-03-31T18:36:49.640Z,50.24
2019-03-31T18:39:20.168Z,50.77
2019-03-31T18:41:50.480Z,51.39
2019-03-31T18:44:20.758Z,51.94
2019-03-31T18:46:51.488Z,52.79
2019-03-31T18:49:23.004Z,53.45
2019-03-31T18:51:53.412Z,53.91
2019-03-31T18:54:39.265Z,54.44
2019-03-31T18:57:34.364Z,55.03
2019-03-31T19:00:25.978Z,55.36
2019-03-31T19:03:06.940Z,55.73
2019-03-31T19:05:59.040Z,55.94
2019-03-31T19:08:54.298Z,56.04
2019-03-31T19:11:50.083Z,56.78
2019-03-31T19:14:40.151Z,56.98
2019-03-31T19:17:27.810Z,57.69
2019-03-31T19:20:29.149Z,58.40
2019-03-31T19:23:21.562Z,58.81
2019-03-31T19:26:01.298Z,59.38
2019-03-31T19:28:44.512Z,59.79
2019-03-31T19:31:31.411Z,60.25
2019-03-31T19:34:23.563Z,60.53
2019-03-31T19:37:26.877Z,60.60
2019-03-31T19:40:16.050Z,60.99
2019-03-31T19:43:03.907Z,61.57
2019-03-31T19:45:59.121Z,61.63
2019-03-31T19:48:43.153Z,61.72
2019-03-31T19:51:35.378Z,61.89
2019-03-31T19:54:30.380Z,62.29
2019-03-31T19:57:30.456Z,62.24
2019-03-31T20:00:18.508Z,62.59
2019-03-31T20:02:58.741Z,62.82
2019-03-31T20:05:51.874Z,63.44
2019-03-31T20:08:52.988Z,63.05
2019-03-31T20:11:54.159Z,63.41
2019-03-31T20:14:43.282Z,63.09
2019-03-31T20:17:31.759Z,63.67
2019-03-31T20:20:19.086Z,63.77
2019-03-31T20:23:06.861Z,63.81
2019-03-31T20:25:45.810Z,64.04
2019-03-31T20:28:34.895Z,64.13
2019-03-31T20:31:26.754Z,64.56
2019-03-31T20:34:10.053Z,64.70
2019-03-31T20:36:48.017Z,64.87
2019-03-31T20:39:40.311Z,64.77
2019-03-31T20:42:23.349Z,64.67
2019-03-31T20:44:53.468Z,63.96
2019-03-31T20:47:23.540Z,63.91
2019-03-31T20:49:53.677Z,63.65
2019-03-31T20:52:23.793Z,63.36
2019-03-31T20:54:53.876Z,63.86
2019-03-31T20:57:24.006Z,63.97
2019-03-31T20:59:54.101Z,64.96
2019-03-31T21:02:24.183Z,64.98
2019-03-31T21:04:54.261Z,65.18
2019-03-31T21:07:24.332Z,65.44
2019-03-31T21:09:54.465Z,65.42
2019-03-31T21:12:24.571Z,65.58
2019-03-31T21:14:54.783Z,66.44
2019-03-31T21:17:24.947Z,66.87
2019-03-31T21:19:54.988Z,67.14
2019-03-31T21:22:25.026Z,67.32
2019-03-31T21:24:55.104Z,68.26
2019-03-31T21:27:25.162Z,68.56
2019-03-31T21:29:55.309Z,68.50
2019-03-31T21:32:25.370Z,68.80
2019-03-31T21:34:58.153Z,68.90
2019-03-31T21:37:28.157Z,69.31
2019-03-31T21:40:04.551Z,69.96
2019-03-31T21:42:34.613Z,70.22
2019-03-31T21:45:04.864Z,70.77
2019-03-31T21:47:35.020Z,70.93
2019-03-31T21:50:05.229Z,71.11
2019-03-31T21:52:35.286Z,72.20
2019-03-31T21:55:05.356Z,72.64
2019-03-31T21:57:35.487Z,73.10
2019-03-31T22:00:07.533Z,73.41
2019-03-31T22:02:37.633Z,73.71
2019-03-31T22:05:08.113Z,74.81
2019-03-31T22:07:38.192Z,74.80
2019-03-31T22:10:08.584Z,75.31
2019-03-31T22:12:38.693Z,75.65
2019-03-31T22:15:08.747Z,76.53
2019-03-31T22:17:38.868Z,76.74
2019-03-31T22:20:08.990Z,77.21
2019-03-31T22:22:39.110Z,77.55
2019-03-31T22:25:09.274Z,78.00
2019-03-31T22:27:39.390Z,78.36
2019-03-31T22:30:09.461Z,78.91
2019-03-31T22:32:39.548Z,79.22
2019-03-31T22:35:09.600Z,79.14
2019-03-31T22:37:39.672Z,79.42
2019-03-31T22:40:09.792Z,79.42
2019-03-31T22:42:39.869Z,79.53
2019-03-31T22:45:10.405Z,79.92
2019-03-31T22:47:40.472Z,80.03
2019-03-31T22:50:10.489Z,80.09
2019-03-31T22:52:40.544Z,80.48
2019-03-31T22:55:10.555Z,80.46
2019-03-31T22:57:40.625Z,80.53
2019-03-31T23:00:17.640Z,80.71
2019-03-31T23:02:47.708Z,80.79
2019-03-31T23:05:17.794Z,81.00
2019-03-31T23:07:48.274Z,81.20
2019-03-31T23:10:18.338Z,81.54
2019-03-31T23:12:48.427Z,81.63
2019-03-31T23:15:18.524Z,81.94
2019-03-31T23:17:48.571Z,82.18
2019-03-31T23:20:19.630Z,82.59
2019-03-31T23:22:49.700Z,82.74
2019-03-31T23:25:20.231Z,82.96
2019-03-31T23:27:50.272Z,83.30
2019-03-31T23:30:20.881Z,83.42
2019-03-31T23:32:50.949Z,83.64
2019-03-31T23:35:23.634Z,83.64
2019-03-31T23:37:53.620Z,83.63
2019-03-31T23:40:23.652Z,84.33
2019-03-31T23:42:53.690Z,84.47
2019-03-31T23:45:23.808Z,84.59
2019-03-31T23:47:53.831Z,84.71
2019-03-31T23:50:23.942Z,85.05
2019-03-31T23:52:54.124Z,85.66
2019-03-31T23:55:24.253Z,86.25
2019-03-31T23:57:54.255Z,86.23
